Time;durP1;ratioP1;P1;durP2;ratioP2;P2;SDS_P1;SDS_P2;PMS_P1;PMS_P2;Temp;Humidity;BMP_temperature;BMP_pressure;BME280_temperature;BME280_humidity;BME280_pressure;Samples;Min_cycle;Max_cycle;Signal;HPM_P1;HPM_P2
2024/04/16 03:16:35;;;;;;;6.17;3.57;;;;;;;5.86;nan;99010.81;5230112;27;20764;-92
2024/04/16 05:52:14;;;;;;;8.83;5.50;;;;;;;6.35;nan;99012.91;5211333;27;20550;-91
2024/04/16 05:54:43;;;;;;;8.03;4.60;;;;;;;6.43;nan;99012.69;5208812;27;20004;-91
2024/04/16 05:57:11;;;;;;;7.33;4.30;;;;;;;6.46;nan;99018.69;5240587;27;20003;-91
2024/04/16 05:59:38;;;;;;;8.50;4.60;;;;;;;6.52;nan;99007.16;5240212;27;20011;-92
2024/04/16 06:02:05;;;;;;;7.63;4.57;;;;;;;6.62;nan;99013.00;5212558;27;20007;-92
2024/04/16 06:04:33;;;;;;;9.97;5.60;;;;;;;6.68;nan;99005.78;5213022;27;20400;-91
2024/04/16 06:07:01;;;;;;;10.13;4.83;;;;;;;6.77;nan;99010.75;5185626;27;20007;-91
2024/04/16 06:09:28;;;;;;;8.43;5.67;;;;;;;6.83;nan;99007.09;5212018;27;20073;-91
2024/04/16 06:11:56;;;;;;;6.83;4.47;;;;;;;6.99;nan;99012.72;5212763;27;20003;-92
2024/04/16 06:14:23;;;;;;;5.90;4.00;;;;;;;7.14;nan;99017.44;5213244;27;20018;-91
2024/04/16 06:16:50;;;;;;;5.07;3.53;;;;;;;7.17;nan;99019.97;5185373;27;20003;-91
2024/04/16 06:19:18;;;;;;;6.67;3.40;;;;;;;7.29;nan;99021.34;5240547;27;20498;-91
2024/04/16 06:21:45;;;;;;;8.00;3.93;;;;;;;7.57;nan;99014.25;5213534;27;20050;-91
2024/04/16 06:24:13;;;;;;;3.77;2.97;;;;;;;7.54;nan;99027.47;5159161;27;19999;-93
2024/04/16 06:26:40;;;;;;;6.40;3.10;;;;;;;7.59;nan;99028.19;5239745;27;20003;-91
2024/04/16 06:29:08;;;;;;;4.63;3.20;;;;;;;7.87;nan;99030.69;5216043;27;20458;-92
2024/04/16 06:31:35;;;;;;;4.33;2.63;;;;;;;7.89;nan;99030.63;5241968;27;20396;-92
2024/04/16 06:34:03;;;;;;;5.93;2.90;;;;;;;7.71;nan;99033.91;5245963;27;20011;-90
2024/04/16 06:36:31;;;;;;;4.97;3.40;;;;;;;7.71;nan;99026.91;5273725;27;20008;-91
2024/04/16 06:38:58;;;;;;;28.67;26.27;;;;;;;7.75;nan;99030.28;5246024;27;19999;-91
2024/04/16 06:41:25;;;;;;;7.23;3.10;;;;;;;7.50;nan;99035.53;5246352;27;20010;-93
2024/04/16 06:43:53;;;;;;;6.67;6.07;;;;;;;7.54;nan;99029.25;5218321;27;19998;-90
2024/04/16 06:46:20;;;;;;;4.80;3.37;;;;;;;7.32;nan;99031.75;5217902;27;20009;-92
2024/04/16 06:48:51;;;;;;;9.00;7.60;;;;;;;7.37;nan;99029.81;5217869;27;20073;-92
2024/04/16 06:51:26;;;;;;;6.60;4.10;;;;;;;7.41;nan;99030.59;5219847;27;20435;-92
2024/04/16 06:53:53;;;;;;;6.20;4.40;;;;;;;7.49;nan;99034.69;5273949;27;20002;-93
2024/04/16 06:56:20;;;;;;;4.47;2.90;;;;;;;7.68;nan;99034.03;5246036;27;20014;-93
2024/04/16 06:58:48;;;;;;;3.00;1.90;;;;;;;7.70;nan;99033.06;5245997;27;20086;-91
2024/04/16 07:01:15;;;;;;;5.63;2.80;;;;;;;7.60;nan;99036.94;5222159;27;20015;-92
2024/04/16 07:03:43;;;;;;;4.70;2.90;;;;;;;7.38;nan;99033.31;5212632;27;20027;-91
2024/04/16 07:06:10;;;;;;;7.93;4.57;;;;;;;7.31;nan;99022.13;5212448;27;20035;-91
2024/04/16 07:08:37;;;;;;;4.83;3.43;;;;;;;7.18;nan;99033.97;5185430;27;20019;-91
2024/04/16 07:11:05;;;;;;;2.57;2.37;;;;;;;7.13;nan;99039.34;5186264;27;20071;-92
2024/04/16 07:13:33;;;;;;;3.73;2.83;;;;;;;7.05;nan;99033.50;5211240;27;20047;-92
2024/04/16 07:16:00;;;;;;;3.87;2.10;;;;;;;7.06;nan;99048.34;5211492;27;20014;-92
2024/04/16 07:18:28;;;;;;;2.60;1.90;;;;;;;7.05;nan;99042.22;5210573;27;20077;-91
2024/04/16 07:20:55;;;;;;;4.03;3.10;;;;;;;7.09;nan;99040.38;5197974;27;20360;-92
2024/04/16 07:23:23;;;;;;;3.60;2.30;;;;;;;7.09;nan;99032.50;5211721;27;20503;-92
2024/04/16 07:25:50;;;;;;;2.87;1.90;;;;;;;7.12;nan;99035.03;5211362;27;20352;-91
2024/04/16 12:10:53;;;;;;;2.53;2.10;;;;;;;9.73;nan;99209.78;5142441;27;20016;-90
2024/04/16 12:13:20;;;;;;;4.05;2.08;;;;;;;9.45;nan;99191.56;5109133;28;20071;-90
2024/04/16 12:16:15;;;;;;;3.50;1.83;;;;;;;9.37;nan;99195.41;5110323;28;20030;-92
2024/04/16 12:18:53;;;;;;;4.57;2.22;;;;;;;9.36;nan;99196.34;5071567;28;20098;-92
2024/04/16 12:21:26;;;;;;;4.22;2.40;;;;;;;9.56;nan;99189.34;5089291;28;20055;-92
2024/04/16 12:23:57;;;;;;;4.90;2.25;;;;;;;9.68;nan;99184.53;5064175;28;20017;-92
2024/04/16 12:26:24;;;;;;;4.82;2.10;;;;;;;9.89;nan;99186.28;5089978;28;20002;-93
2024/04/16 12:28:57;;;;;;;2.83;1.70;;;;;;;9.99;nan;99184.97;5089632;28;20002;-93
2024/04/16 12:31:25;;;;;;;2.83;1.60;;;;;;;9.94;nan;99186.94;5116065;28;20002;-92
2024/04/16 12:33:54;;;;;;;1.85;1.50;;;;;;;9.87;nan;99188.97;5114584;28;20006;-93
2024/04/16 12:36:27;;;;;;;2.67;2.22;;;;;;;9.93;nan;99184.38;5063544;28;20014;-93
2024/04/16 12:38:56;;;;;;;2.40;1.50;;;;;;;9.91;nan;99194.13;5089703;28;20002;-94
2024/04/16 12:41:24;;;;;;;1.98;1.30;;;;;;;9.95;nan;99188.66;5089653;28;20006;-93
2024/04/16 12:43:52;;;;;;;2.65;1.67;;;;;;;10.19;nan;99183.28;5119001;28;20001;-92
2024/04/16 12:46:19;;;;;;;2.78;1.20;;;;;;;10.26;nan;99187.41;5117232;28;20018;-93
2024/04/16 12:48:47;;;;;;;2.28;1.50;;;;;;;10.26;nan;99177.72;5113583;28;20014;-93
2024/04/16 12:51:14;;;;;;;1.85;1.48;;;;;;;10.38;nan;99176.31;5089351;28;20014;-92
2024/04/16 12:53:45;;;;;;;3.08;1.75;;;;;;;10.43;nan;99177.00;5115393;28;20006;-93
2024/04/16 12:56:12;;;;;;;3.65;2.08;;;;;;;10.47;nan;99181.19;5065444;28;20012;-92
2024/04/16 12:58:40;;;;;;;2.75;2.10;;;;;;;10.55;nan;99175.59;5115979;28;20009;-93
2024/04/16 13:01:08;;;;;;;3.97;2.25;;;;;;;10.60;nan;99178.91;5113300;28;20047;-93
2024/04/16 13:03:35;;;;;;;2.50;1.85;;;;;;;10.71;nan;99177.47;5087473;28;20042;-93
2024/04/16 13:06:03;;;;;;;2.70;1.70;;;;;;;10.54;nan;99181.78;5090031;28;20009;-91
2024/04/16 13:08:30;;;;;;;2.83;1.73;;;;;;;10.52;nan;99176.59;5113339;28;20101;-92
2024/04/16 13:10:58;;;;;;;2.00;1.80;;;;;;;10.56;nan;99172.00;5114771;28;20026;-92
2024/04/16 13:13:26;;;;;;;2.90;1.70;;;;;;;10.56;nan;99178.16;5086317;28;20006;-92
2024/04/16 13:15:55;;;;;;;2.40;1.67;;;;;;;10.54;nan;99185.28;5060563;28;20014;-92
2024/04/16 13:18:23;;;;;;;1.70;1.50;;;;;;;10.55;nan;99181.72;5113907;27;20006;-92
2024/04/16 13:20:54;;;;;;;2.67;1.80;;;;;;;10.68;nan;99182.91;5085620;28;20002;-92
2024/04/16 13:23:24;;;;;;;4.13;2.20;;;;;;;10.56;nan;99188.72;5088812;28;20397;-91
2024/04/16 13:25:52;;;;;;;3.20;2.53;;;;;;;10.70;nan;99182.84;5085852;28;20421;-90
2024/04/16 14:43:33;;;;;;;2.20;1.90;;;;;;;9.48;nan;99244.16;5201929;27;19935;-95
2024/04/16 14:52:26;;;;;;;1.13;1.00;;;;;;;9.45;nan;99281.19;5179232;27;20019;-92
2024/04/16 14:56:06;;;;;;;0.80;0.80;;;;;;;9.08;nan;99310.69;5143466;27;20529;-90
2024/04/16 14:58:35;;;;;;;1.03;0.80;;;;;;;8.38;nan;99318.34;5117324;27;20282;-91
2024/04/16 15:01:03;;;;;;;0.90;0.70;;;;;;;8.43;nan;99324.34;5187162;27;20002;-93
2024/04/16 15:03:31;;;;;;;1.08;0.52;;;;;;;7.99;nan;99333.59;5144084;27;20009;-93
2024/04/16 15:05:59;;;;;;;1.63;0.90;;;;;;;7.87;nan;99340.97;5171950;27;20044;-92
2024/04/16 15:08:26;;;;;;;0.50;0.50;;;;;;;7.85;nan;99339.31;5153017;27;20076;-91
2024/04/16 15:10:54;;;;;;;4.17;2.00;;;;;;;7.67;nan;99337.25;5149166;27;20002;-92
2024/04/16 15:13:23;;;;;;;2.17;1.07;;;;;;;7.70;nan;99334.50;5148580;27;20009;-92
2024/04/16 15:16:25;;;;;;;;;;;;;;;;;;;;;
2024/04/16 15:19:14;;;;;;;0.40;0.40;;;;;;;7.68;nan;99339.81;5117612;27;20004;-90
2024/04/16 15:21:41;;;;;;;0.20;0.20;;;;;;;7.69;nan;99346.78;5121729;27;20025;-92
2024/04/16 15:24:08;;;;;;;0.30;0.30;;;;;;;7.66;nan;99352.16;5095583;27;20004;-92
2024/04/16 15:26:36;;;;;;;0.20;0.20;;;;;;;7.67;nan;99348.63;5176296;27;20442;-91
2024/04/16 15:29:08;;;;;;;0.63;0.20;;;;;;;7.71;nan;99347.59;5096807;27;20005;-91
2024/04/16 15:31:36;;;;;;;0.37;0.30;;;;;;;7.80;nan;99347.31;5148882;27;20020;-91
2024/04/16 15:34:04;;;;;;;0.50;0.27;;;;;;;7.83;nan;99351.66;5121584;27;20028;-90
2024/04/16 15:36:33;;;;;;;0.47;0.37;;;;;;;7.88;nan;99352.34;5148002;27;20714;-91
2024/04/16 15:39:01;;;;;;;0.93;0.40;;;;;;;7.77;nan;99357.09;5146315;27;20147;-91
2024/04/16 15:41:28;;;;;;;0.33;0.30;;;;;;;7.58;nan;99362.03;5148215;27;20028;-92
2024/04/16 15:44:00;;;;;;;0.40;0.33;;;;;;;7.50;nan;99358.75;5174770;27;19996;-91
2024/04/16 15:46:27;;;;;;;0.70;0.50;;;;;;;7.76;nan;99358.00;5147547;27;20010;-92
2024/04/16 15:48:55;;;;;;;0.43;0.40;;;;;;;7.85;nan;99373.50;5121838;27;20031;-91
2024/04/16 15:51:25;;;;;;;0.30;0.30;;;;;;;7.94;nan;99359.19;5121667;27;20082;-91
2024/04/16 15:53:52;;;;;;;0.30;0.30;;;;;;;8.00;nan;99366.91;5174867;27;20450;-90
2024/04/16 15:56:20;;;;;;;0.47;0.40;;;;;;;7.96;nan;99365.25;5095125;27;20451;-92
2024/04/16 15:58:48;;;;;;;1.27;0.40;;;;;;;8.04;nan;99371.16;5122189;27;20005;-91
2024/04/16 16:01:16;;;;;;;0.20;0.20;;;;;;;7.90;nan;99374.19;5180034;27;20100;-91
2024/04/16 16:03:44;;;;;;;0.50;0.40;;;;;;;7.97;nan;99367.84;5145685;27;20003;-91
2024/04/16 16:06:12;;;;;;;0.20;0.20;;;;;;;7.85;nan;99369.09;5174841;27;20358;-92
2024/04/16 16:08:39;;;;;;;0.20;0.20;;;;;;;7.99;nan;99373.06;5145914;27;20265;-91
2024/04/16 16:11:07;;;;;;;0.30;0.20;;;;;;;8.04;nan;99374.66;5146274;27;20019;-91
2024/04/16 16:13:35;;;;;;;0.53;0.30;;;;;;;8.09;nan;99382.41;5175877;27;20005;-91
2024/04/16 16:16:02;;;;;;;0.20;0.10;;;;;;;7.90;nan;99385.59;5147681;27;20055;-91
2024/04/16 16:18:30;;;;;;;0.20;0.20;;;;;;;7.92;nan;99382.91;5175336;27;20005;-90
2024/04/16 16:20:57;;;;;;;0.20;0.20;;;;;;;7.87;nan;99383.03;5148381;27;20011;-91
2024/04/16 16:23:25;;;;;;;0.10;0.10;;;;;;;7.80;nan;99384.13;5174621;27;20008;-90
2024/04/16 16:25:52;;;;;;;0.30;0.20;;;;;;;7.74;nan;99391.34;5174422;27;20008;-90
2024/04/16 16:28:19;;;;;;;0.10;0.10;;;;;;;7.80;nan;99391.16;5147386;27;20016;-90
2024/04/16 16:30:48;;;;;;;0.33;0.20;;;;;;;7.83;nan;99391.94;5173664;27;20044;-91
2024/04/16 16:33:15;;;;;;;0.20;0.20;;;;;;;7.93;nan;99392.53;5173401;27;20419;-90
2024/04/16 16:35:43;;;;;;;0.20;0.20;;;;;;;7.85;nan;99391.91;5174193;27;20010;-90
2024/04/16 16:38:10;;;;;;;0.73;0.30;;;;;;;7.68;nan;99397.66;5146915;27;20005;-91
2024/04/16 16:40:37;;;;;;;0.30;0.30;;;;;;;7.59;nan;99401.41;5146791;27;20109;-91
2024/04/16 16:43:06;;;;;;;0.60;0.40;;;;;;;7.64;nan;99401.25;5174859;27;20020;-90
2024/04/16 16:45:37;;;;;;;0.40;0.40;;;;;;;7.60;nan;99397.00;5175461;27;20728;-90
2024/04/16 16:48:04;;;;;;;0.57;0.50;;;;;;;7.60;nan;99399.63;5177167;27;20004;-90
2024/04/16 16:50:32;;;;;;;0.43;0.40;;;;;;;7.48;nan;99395.59;5176939;27;20630;-90
2024/04/16 16:52:59;;;;;;;1.37;0.80;;;;;;;7.53;nan;99400.69;5176933;27;20006;-90
2024/04/16 16:55:27;;;;;;;1.47;0.80;;;;;;;7.55;nan;99399.75;5176790;27;20036;-90
2024/04/16 16:57:54;;;;;;;1.77;0.87;;;;;;;7.49;nan;99404.34;5176560;27;20053;-90
2024/04/16 17:00:21;;;;;;;1.93;1.00;;;;;;;7.55;nan;99398.88;5156489;27;20407;-90
2024/04/16 17:02:51;;;;;;;1.37;0.97;;;;;;;7.42;nan;99406.28;5208864;27;20079;-90
2024/04/16 17:05:18;;;;;;;3.43;1.30;;;;;;;7.42;nan;99402.78;5204072;27;20486;-90
2024/04/16 17:07:46;;;;;;;1.93;0.80;;;;;;;7.34;nan;99409.09;5155188;27;20468;-90
2024/04/16 17:10:13;;;;;;;3.13;1.40;;;;;;;7.27;nan;99412.78;5209627;27;20055;-90
2024/04/16 17:12:40;;;;;;;3.23;1.40;;;;;;;7.28;nan;99411.88;5181216;27;20008;-90
2024/04/16 17:15:08;;;;;;;2.83;1.30;;;;;;;7.10;nan;99409.75;5182533;27;20003;-91
2024/04/16 17:17:35;;;;;;;1.90;1.20;;;;;;;7.03;nan;99411.69;5182382;27;20019;-90
2024/04/16 17:20:03;;;;;;;2.87;1.40;;;;;;;7.08;nan;99405.47;5209226;27;20012;-90
2024/04/16 17:22:30;;;;;;;3.17;1.37;;;;;;;7.05;nan;99411.63;5182335;27;20515;-90
2024/04/16 17:24:58;;;;;;;3.77;1.43;;;;;;;6.98;nan;99418.81;5209565;27;20004;-91
2024/04/16 17:27:25;;;;;;;3.03;1.40;;;;;;;6.84;nan;99426.19;5155553;27;20000;-90
2024/04/16 17:29:53;;;;;;;2.20;1.50;;;;;;;6.83;nan;99426.22;5202762;27;20096;-90
2024/04/16 17:32:20;;;;;;;1.90;1.40;;;;;;;6.76;nan;99420.25;5181668;27;20438;-90
2024/04/16 17:34:48;;;;;;;2.57;1.20;;;;;;;6.75;nan;99435.16;5148896;27;20013;-91
2024/04/16 17:37:16;;;;;;;3.20;1.20;;;;;;;6.74;nan;99438.69;5175055;27;20004;-91
